createdAt,value
2019-05-26T00:00:44.463Z,91.35
2019-05-26T00:01:44.897Z,91.25
2019-05-26T00:02:45.346Z,91.54
2019-05-26T00:03:45.761Z,91.54
2019-05-26T00:04:46.189Z,91.54
2019-05-26T00:05:46.619Z,91.25
2019-05-26T00:06:47.050Z,91.35
2019-05-26T00:07:47.493Z,91.25
2019-05-26T00:08:47.930Z,91.54
2019-05-26T00:09:48.348Z,91.16
2019-05-26T00:10:48.769Z,91.35
2019-05-26T00:11:49.205Z,91.54
2019-05-26T00:12:49.649Z,91.25
2019-05-26T00:13:50.083Z,91.25
2019-05-26T00:14:50.499Z,91.35
2019-05-26T00:15:50.936Z,91.54
2019-05-26T00:16:51.367Z,91.25
2019-05-26T00:17:51.811Z,91.16
2019-05-26T00:18:52.272Z,91.35
2019-05-26T00:19:52.650Z,91.45
2019-05-26T00:20:53.086Z,91.54
2019-05-26T00:21:53.511Z,91.35
2019-05-26T00:22:53.963Z,91.50
2019-05-26T00:23:56.310Z,91.30
2019-05-26T00:24:54.812Z,91.25
2019-05-26T00:25:55.254Z,90.73
2019-05-26T00:26:55.675Z,91.59
2019-05-26T00:27:56.115Z,91.21
2019-05-26T00:28:56.529Z,91.50
2019-05-26T00:29:56.968Z,91.50
2019-05-26T00:30:57.401Z,91.21
2019-05-26T00:31:57.883Z,91.40
2019-05-26T00:32:58.260Z,91.40
2019-05-26T00:33:58.686Z,91.02
2019-05-26T00:34:59.106Z,91.30
2019-05-26T00:35:59.548Z,91.40
2019-05-26T00:36:59.994Z,91.40
2019-05-26T00:38:00.423Z,92.07
2019-05-26T00:39:00.862Z,92.07
2019-05-26T00:40:01.263Z,91.30
2019-05-26T00:41:01.703Z,91.50
2019-05-26T00:42:02.133Z,91.21
2019-05-26T00:43:02.613Z,91.02
2019-05-26T00:44:02.988Z,91.30
2019-05-26T00:45:03.427Z,92.07
2019-05-26T00:46:03.851Z,91.30
2019-05-26T00:47:04.277Z,91.21
2019-05-26T00:48:04.707Z,91.88
2019-05-26T00:49:05.140Z,91.21
2019-05-26T00:50:05.568Z,91.30
2019-05-26T00:51:06.001Z,91.69
2019-05-26T00:52:06.427Z,91.30
2019-05-26T00:53:06.877Z,91.40
2019-05-26T00:54:07.285Z,91.50
2019-05-26T00:55:07.723Z,91.40
2019-05-26T00:56:08.153Z,91.78
2019-05-26T00:57:08.579Z,91.21
2019-05-26T00:58:09.013Z,91.59
2019-05-26T00:59:09.440Z,91.40
2019-05-26T01:00:09.868Z,91.30
2019-05-26T01:01:10.301Z,91.11
2019-05-26T01:02:10.725Z,91.88
2019-05-26T01:03:11.164Z,91.02
2019-05-26T01:04:11.588Z,91.30
2019-05-26T01:05:12.015Z,91.30
2019-05-26T01:06:12.450Z,91.50
2019-05-26T01:07:12.881Z,91.11
2019-05-26T01:08:13.313Z,91.40
2019-05-26T01:09:13.740Z,91.30
2019-05-26T01:10:14.183Z,91.26
2019-05-26T01:11:14.610Z,92.02
2019-05-26T01:12:15.031Z,91.30
2019-05-26T01:13:15.476Z,91.45
2019-05-26T01:14:15.898Z,90.97
2019-05-26T01:15:16.346Z,91.07
2019-05-26T01:16:16.756Z,91.40
2019-05-26T01:17:17.183Z,91.45
2019-05-26T01:18:17.612Z,91.21
2019-05-26T01:19:18.066Z,91.16
2019-05-26T01:20:18.475Z,91.21
2019-05-26T01:21:18.903Z,91.26
2019-05-26T01:22:19.338Z,91.45
2019-05-26T01:23:19.758Z,91.11
2019-05-26T01:24:20.195Z,91.07
2019-05-26T01:25:20.629Z,90.88
2019-05-26T01:26:21.046Z,91.45
2019-05-26T01:27:21.478Z,91.26
2019-05-26T01:28:21.925Z,91.45
2019-05-26T01:29:22.376Z,90.97
2019-05-26T01:30:22.774Z,90.88
2019-05-26T01:31:23.205Z,91.07
2019-05-26T01:32:23.623Z,91.45
2019-05-26T01:33:24.059Z,91.26
2019-05-26T01:34:24.491Z,90.69
2019-05-26T01:35:24.914Z,91.26
2019-05-26T01:36:25.343Z,91.07
2019-05-26T01:37:25.777Z,90.78
2019-05-26T01:38:26.210Z,90.40
2019-05-26T01:39:26.646Z,90.11
2019-05-26T01:40:27.059Z,90.21
2019-05-26T01:41:27.503Z,90.02
2019-05-26T01:42:27.943Z,90.11
2019-05-26T01:43:28.356Z,90.21
2019-05-26T01:44:28.791Z,90.11
2019-05-26T01:45:29.221Z,90.07
2019-05-26T01:46:29.656Z,90.26
2019-05-26T01:47:30.084Z,90.36
2019-05-26T01:48:30.507Z,89.64
2019-05-26T01:49:30.930Z,89.12
2019-05-26T01:50:31.371Z,89.88
2019-05-26T01:51:31.787Z,89.59
2019-05-26T01:52:32.220Z,89.40
2019-05-26T01:53:32.659Z,89.59
2019-05-26T01:54:33.093Z,89.50
2019-05-26T01:55:33.509Z,89.50
2019-05-26T01:56:33.950Z,89.50
2019-05-26T01:57:34.372Z,89.31
2019-05-26T01:58:34.802Z,89.50
2019-05-26T01:59:35.231Z,89.21
2019-05-26T02:00:35.665Z,89.21
2019-05-26T02:01:36.094Z,89.21
2019-05-26T02:02:36.527Z,89.50
2019-05-26T02:03:36.950Z,88.92
2019-05-26T02:04:37.387Z,88.45
2019-05-26T02:05:37.816Z,89.12
2019-05-26T02:06:38.262Z,89.50
2019-05-26T02:07:38.683Z,88.64
2019-05-26T02:08:39.870Z,88.73
2019-05-26T02:09:39.530Z,88.54
2019-05-26T02:10:39.969Z,88.64
2019-05-26T02:11:40.397Z,89.02
2019-05-26T02:12:40.834Z,89.31
2019-05-26T02:13:41.241Z,89.12
2019-05-26T02:14:41.686Z,89.12
2019-05-26T02:15:42.110Z,89.12
2019-05-26T02:16:42.551Z,89.12
2019-05-26T02:17:42.959Z,89.21
2019-05-26T02:18:43.391Z,89.02
2019-05-26T02:19:43.826Z,89.21
2019-05-26T02:20:44.253Z,88.64
2019-05-26T02:21:44.683Z,88.54
2019-05-26T02:22:45.115Z,88.54
2019-05-26T02:23:45.557Z,87.68
2019-05-26T02:24:45.985Z,88.16
2019-05-26T02:25:46.396Z,88.45
2019-05-26T02:26:46.834Z,88.16
2019-05-26T02:27:47.253Z,88.45
2019-05-26T02:28:47.692Z,88.35
2019-05-26T02:29:48.128Z,88.35
2019-05-26T02:30:48.557Z,88.54
2019-05-26T02:31:48.984Z,88.45
2019-05-26T02:32:49.411Z,88.26
2019-05-26T02:33:49.929Z,88.45
2019-05-26T02:34:50.241Z,88.45
2019-05-26T02:35:50.757Z,88.54
2019-05-26T02:36:51.135Z,87.59
2019-05-26T02:37:51.555Z,88.26
2019-05-26T02:39:02.183Z,87.78
2019-05-26T02:39:52.390Z,87.16
2019-05-26T02:40:52.847Z,86.82
2019-05-26T02:41:53.259Z,86.92
2019-05-26T02:42:53.680Z,86.54
2019-05-26T02:43:54.133Z,86.59
2019-05-26T02:44:59.105Z,86.25
2019-05-26T02:45:54.973Z,86.11
2019-05-26T02:46:55.399Z,85.83
2019-05-26T02:47:55.822Z,86.02
2019-05-26T02:48:56.267Z,85.64
2019-05-26T02:49:56.684Z,85.64
2019-05-26T02:50:57.124Z,85.35
2019-05-26T02:51:57.542Z,85.45
2019-05-26T02:52:57.969Z,85.35
2019-05-26T02:53:58.402Z,84.88
2019-05-26T02:54:58.829Z,85.35
2019-05-26T02:55:59.257Z,84.59
2019-05-26T02:56:59.682Z,84.88
2019-05-26T02:58:00.132Z,84.78
2019-05-26T02:59:00.565Z,83.92
2019-05-26T03:00:00.981Z,84.01
2019-05-26T03:01:01.404Z,84.30
2019-05-26T03:02:04.284Z,84.01
2019-05-26T03:03:02.267Z,84.01
2019-05-26T03:04:02.692Z,84.30
2019-05-26T03:05:03.120Z,84.59
2019-05-26T03:06:03.558Z,83.83
2019-05-26T03:07:03.993Z,83.73
2019-05-26T03:08:04.405Z,83.73
2019-05-26T03:09:21.202Z,83.73
2019-05-26T03:10:05.279Z,84.01
2019-05-26T03:11:05.705Z,84.20
2019-05-26T03:12:06.124Z,83.54
2019-05-26T03:13:06.546Z,83.54
2019-05-26T03:14:06.967Z,83.25
2019-05-26T03:15:07.418Z,82.97
2019-05-26T03:16:07.829Z,83.16
2019-05-26T03:17:08.258Z,82.11
2019-05-26T03:18:08.684Z,82.59
2019-05-26T03:19:09.118Z,82.11
2019-05-26T03:20:09.550Z,82.11
2019-05-26T03:21:09.991Z,81.73
2019-05-26T03:22:10.395Z,81.54
2019-05-26T03:23:10.877Z,81.25
2019-05-26T03:24:11.260Z,80.20
2019-05-26T03:25:11.688Z,80.58
2019-05-26T03:26:12.117Z,80.30
2019-05-26T03:27:12.539Z,80.68
2019-05-26T03:28:12.985Z,80.96
2019-05-26T03:29:13.400Z,80.39
2019-05-26T03:30:13.848Z,79.82
2019-05-26T03:31:14.274Z,80.58
2019-05-26T03:32:14.702Z,80.58
2019-05-26T03:33:15.201Z,80.96
2019-05-26T03:34:15.566Z,80.77
2019-05-26T03:35:15.983Z,81.63
2019-05-26T03:36:16.415Z,81.73
2019-05-26T03:37:16.832Z,82.11
2019-05-26T03:38:17.260Z,82.30
2019-05-26T03:39:17.706Z,82.01
2019-05-26T03:40:18.137Z,82.49
2019-05-26T03:41:18.557Z,82.97
2019-05-26T03:42:18.980Z,83.35
2019-05-26T03:43:19.404Z,82.68
2019-05-26T03:44:19.830Z,82.30
2019-05-26T03:45:20.307Z,82.40
2019-05-26T03:46:20.724Z,82.40
2019-05-26T03:47:21.120Z,82.68
2019-05-26T03:48:21.554Z,82.49
2019-05-26T03:49:21.980Z,82.20
2019-05-26T03:50:22.408Z,81.92
2019-05-26T03:51:22.853Z,82.30
2019-05-26T03:52:23.272Z,82.01
2019-05-26T03:53:23.701Z,82.97
2019-05-26T03:54:24.128Z,82.87
2019-05-26T03:55:24.551Z,82.59
2019-05-26T03:56:24.972Z,83.16
2019-05-26T03:57:25.413Z,82.59
2019-05-26T03:58:25.829Z,83.54
2019-05-26T03:59:26.289Z,83.73
2019-05-26T04:00:26.705Z,84.01
2019-05-26T04:01:27.148Z,83.83
2019-05-26T04:02:27.550Z,84.11
2019-05-26T04:03:27.982Z,84.30
2019-05-26T04:04:28.413Z,84.59
2019-05-26T04:05:28.834Z,85.35
2019-05-26T04:06:29.278Z,85.11
2019-05-26T04:07:29.696Z,85.73
2019-05-26T04:08:30.116Z,85.93
2019-05-26T04:09:30.552Z,85.87
2019-05-26T04:10:30.986Z,85.64
2019-05-26T04:11:31.415Z,86.30
2019-05-26T04:12:31.839Z,86.25
2019-05-26T04:13:32.267Z,86.49
2019-05-26T04:14:32.698Z,86.21
2019-05-26T04:15:33.135Z,86.40
2019-05-26T04:16:33.570Z,86.02
2019-05-26T04:17:34.007Z,85.87
2019-05-26T04:18:34.425Z,86.25
2019-05-26T04:19:34.848Z,86.25
2019-05-26T04:20:35.269Z,86.92
2019-05-26T04:21:35.715Z,87.02
2019-05-26T04:22:36.140Z,87.40
2019-05-26T04:23:36.562Z,87.68
2019-05-26T04:24:36.982Z,87.49
2019-05-26T04:25:37.421Z,87.40
2019-05-26T04:26:37.844Z,87.59
2019-05-26T04:27:38.281Z,88.26
2019-05-26T04:28:38.698Z,88.59
2019-05-26T04:29:39.131Z,89.35
2019-05-26T04:30:39.562Z,89.06
2019-05-26T04:31:39.991Z,89.16
2019-05-26T04:32:40.416Z,89.50
2019-05-26T04:33:40.858Z,89.06
2019-05-26T04:34:41.280Z,89.16
2019-05-26T04:35:41.728Z,89.16
2019-05-26T04:36:42.152Z,89.54
2019-05-26T04:37:42.565Z,89.54
2019-05-26T04:38:42.992Z,89.54
2019-05-26T04:39:43.428Z,88.78
2019-05-26T04:40:43.867Z,88.97
2019-05-26T04:41:44.395Z,89.25
2019-05-26T04:42:44.717Z,89.92
2019-05-26T04:43:45.143Z,90.02
2019-05-26T04:44:45.593Z,89.92
2019-05-26T04:45:46.005Z,90.40
2019-05-26T04:46:46.433Z,89.92
2019-05-26T04:47:46.888Z,89.35
2019-05-26T04:48:47.304Z,89.64
2019-05-26T04:49:47.741Z,89.92
2019-05-26T04:50:48.154Z,89.92
2019-05-26T04:51:48.576Z,89.45
2019-05-26T04:53:05.491Z,89.45
2019-05-26T04:53:49.450Z,90.02
2019-05-26T04:54:49.875Z,90.02
2019-05-26T04:55:50.316Z,88.87
2019-05-26T04:56:50.730Z,89.64
2019-05-26T04:57:51.157Z,90.16
2019-05-26T04:58:51.594Z,90.21
2019-05-26T04:59:52.005Z,89.73
2019-05-26T05:00:52.448Z,90.06
2019-05-26T05:01:52.942Z,90.06
2019-05-26T05:02:53.307Z,90.25
2019-05-26T05:03:53.730Z,90.16
2019-05-26T05:04:54.173Z,89.45
2019-05-26T05:05:54.611Z,90.11
2019-05-26T05:06:55.027Z,89.83
2019-05-26T05:07:55.454Z,88.40
2019-05-26T05:08:55.887Z,89.35
2019-05-26T05:09:56.323Z,89.16
2019-05-26T05:10:56.755Z,90.21
2019-05-26T05:11:57.173Z,90.06
2019-05-26T05:12:57.610Z,89.97
2019-05-26T05:13:58.039Z,90.06
2019-05-26T05:14:58.478Z,89.45
2019-05-26T05:15:58.915Z,89.59
2019-05-26T05:16:59.336Z,89.97
2019-05-26T05:17:59.761Z,90.25
2019-05-26T05:19:00.194Z,90.16
2019-05-26T05:20:00.618Z,90.45
2019-05-26T05:21:01.073Z,90.20
2019-05-26T05:22:01.482Z,90.45
2019-05-26T05:23:01.911Z,90.16
2019-05-26T05:24:02.348Z,90.06
2019-05-26T05:25:02.777Z,90.25
2019-05-26T05:26:03.198Z,88.92
2019-05-26T05:27:03.639Z,89.39
2019-05-26T05:28:04.068Z,89.39
2019-05-26T05:29:04.533Z,89.97
2019-05-26T05:30:04.944Z,90.20
2019-05-26T05:31:05.361Z,90.20
2019-05-26T05:32:05.792Z,90.59
2019-05-26T05:33:06.251Z,90.30
2019-05-26T05:34:06.690Z,90.49
2019-05-26T05:35:07.088Z,91.35
2019-05-26T05:36:07.518Z,91.20
2019-05-26T05:37:07.954Z,91.20
2019-05-26T05:38:08.388Z,91.30
2019-05-26T05:39:08.817Z,91.49
2019-05-26T05:40:09.257Z,91.39
2019-05-26T05:41:09.712Z,91.59
2019-05-26T05:42:10.132Z,90.20
2019-05-26T05:43:10.541Z,90.49
2019-05-26T05:44:10.985Z,91.11
2019-05-26T05:45:11.415Z,90.39
2019-05-26T05:46:11.844Z,91.35
2019-05-26T05:47:12.271Z,91.30
2019-05-26T05:48:12.716Z,91.59
2019-05-26T05:49:13.148Z,91.83
2019-05-26T05:50:13.566Z,91.83
2019-05-26T05:51:14.018Z,91.35
2019-05-26T05:52:14.444Z,91.49
2019-05-26T05:53:14.884Z,91.53
2019-05-26T05:54:15.307Z,91.39
2019-05-26T05:55:15.743Z,91.39
2019-05-26T05:56:17.160Z,91.58
2019-05-26T05:57:16.634Z,91.58
2019-05-26T05:58:17.061Z,91.01
2019-05-26T05:59:17.487Z,92.06
2019-05-26T06:00:17.907Z,91.44
2019-05-26T06:01:18.354Z,91.49
2019-05-26T06:02:18.788Z,90.82
2019-05-26T06:03:19.215Z,91.30
2019-05-26T06:04:19.651Z,91.11
2019-05-26T06:05:20.090Z,91.20
2019-05-26T06:06:20.523Z,91.11
2019-05-26T06:07:20.955Z,91.15
2019-05-26T06:08:21.384Z,90.96
2019-05-26T06:09:21.817Z,90.86
2019-05-26T06:10:22.273Z,90.67
2019-05-26T06:11:22.697Z,90.29
2019-05-26T06:12:23.191Z,90.77
2019-05-26T06:13:23.559Z,90.29
2019-05-26T06:14:23.997Z,90.67
2019-05-26T06:15:24.439Z,90.53
2019-05-26T06:16:24.909Z,90.19
2019-05-26T06:17:25.314Z,89.80
2019-05-26T06:18:25.751Z,89.85
2019-05-26T06:19:26.178Z,89.70
2019-05-26T06:20:26.614Z,89.26
2019-05-26T06:21:27.047Z,88.40
2019-05-26T06:22:27.491Z,87.35
2019-05-26T06:23:27.933Z,87.15
2019-05-26T06:24:28.363Z,87.49
2019-05-26T06:25:28.813Z,87.63
2019-05-26T06:26:29.249Z,87.98
2019-05-26T06:27:29.687Z,87.21
2019-05-26T06:28:30.126Z,88.98
2019-05-26T06:29:30.583Z,87.39
2019-05-26T06:30:30.987Z,86.33
2019-05-26T06:31:31.437Z,85.99
2019-05-26T06:32:31.868Z,86.14
2019-05-26T06:33:32.312Z,86.34
2019-05-26T06:34:32.767Z,88.35
2019-05-26T06:35:33.278Z,87.39
2019-05-26T06:36:33.645Z,85.32
2019-05-26T06:37:34.066Z,83.69
2019-05-26T06:38:34.515Z,83.36
2019-05-26T06:39:34.971Z,84.45
2019-05-26T06:40:35.397Z,83.69
2019-05-26T06:41:35.838Z,83.34
2019-05-26T06:42:36.291Z,82.76
2019-05-26T06:43:36.722Z,81.99
2019-05-26T06:44:52.465Z,81.81
2019-05-26T06:45:37.589Z,81.04
2019-05-26T06:46:38.037Z,81.13
2019-05-26T06:47:38.495Z,81.56
2019-05-26T06:48:38.932Z,81.75
2019-05-26T06:49:39.361Z,79.44
2019-05-26T06:50:39.820Z,78.48
2019-05-26T06:51:40.246Z,78.86
2019-05-26T06:52:40.695Z,78.71
2019-05-26T06:53:41.130Z,77.26
2019-05-26T06:54:41.589Z,77.75
2019-05-26T06:55:42.010Z,76.44
2019-05-26T06:56:42.486Z,75.13
2019-05-26T06:57:42.908Z,73.33
2019-05-26T06:58:43.353Z,71.18
2019-05-26T06:59:43.870Z,72.20
2019-05-26T07:00:44.248Z,75.19
2019-05-26T07:01:44.725Z,73.51
2019-05-26T07:02:45.136Z,74.16
2019-05-26T07:03:45.571Z,71.66
2019-05-26T07:04:46.019Z,70.70
2019-05-26T07:05:46.469Z,70.73
2019-05-26T07:06:46.904Z,69.96
2019-05-26T07:07:47.371Z,69.64
2019-05-26T07:08:47.820Z,69.89
2019-05-26T07:09:48.238Z,71.53
2019-05-26T07:10:48.683Z,70.86
2019-05-26T07:11:55.841Z,71.53
2019-05-26T07:12:49.587Z,73.19
2019-05-26T07:13:50.021Z,73.99
2019-05-26T07:14:50.473Z,75.07
2019-05-26T07:15:50.924Z,74.96
2019-05-26T07:16:51.361Z,72.55
2019-05-26T07:17:51.868Z,72.65
2019-05-26T07:18:52.249Z,72.74
2019-05-26T07:19:52.694Z,72.43
2019-05-26T07:20:53.138Z,71.08
2019-05-26T07:21:53.583Z,69.57
2019-05-26T07:22:54.063Z,68.52
2019-05-26T07:23:54.473Z,69.77
2019-05-26T07:24:54.963Z,69.80
2019-05-26T07:25:55.369Z,67.65
2019-05-26T07:26:55.840Z,69.61
2019-05-26T07:27:56.278Z,67.88
2019-05-26T07:28:56.726Z,67.62
2019-05-26T07:29:57.166Z,69.15
2019-05-26T07:30:57.605Z,69.45
2019-05-26T07:31:58.057Z,65.98
2019-05-26T07:32:58.519Z,65.75
2019-05-26T07:33:58.968Z,66.43
2019-05-26T07:34:59.433Z,67.10
2019-05-26T07:35:59.854Z,66.33
2019-05-26T07:37:00.318Z,65.01
2019-05-26T07:38:00.760Z,63.85
2019-05-26T07:39:01.202Z,64.72
2019-05-26T07:40:01.702Z,65.56
2019-05-26T07:41:02.106Z,65.95
2019-05-26T07:42:10.213Z,66.52
2019-05-26T07:43:03.005Z,67.33
2019-05-26T07:44:03.456Z,68.35
2019-05-26T07:45:03.886Z,69.76
2019-05-26T07:46:04.344Z,71.17
2019-05-26T07:47:04.791Z,72.26
2019-05-26T07:48:05.447Z,70.41
2019-05-26T07:49:05.917Z,69.83
2019-05-26T07:50:06.783Z,68.19
2019-05-26T07:51:07.646Z,66.20
2019-05-26T07:52:07.030Z,66.46
2019-05-26T07:53:07.483Z,67.61
2019-05-26T07:54:24.311Z,67.81
2019-05-26T07:55:08.370Z,66.72
2019-05-26T07:57:42.285Z,65.53
2019-05-26T07:58:42.521Z,63.98
2019-05-26T08:00:37.031Z,62.66
2019-05-26T08:01:37.441Z,61.67
2019-05-26T08:03:32.035Z,63.50
2019-05-26T08:04:32.494Z,64.56
2019-05-26T08:06:27.216Z,66.39
2019-05-26T08:07:27.548Z,67.93
2019-05-26T08:09:22.185Z,68.84
2019-05-26T08:10:22.616Z,67.87
2019-05-26T08:12:25.755Z,66.49
2019-05-26T08:13:17.665Z,66.08
2019-05-26T08:15:12.284Z,65.30
2019-05-26T08:16:12.728Z,63.54
2019-05-26T08:18:07.317Z,63.63
2019-05-26T08:19:07.783Z,63.18
2019-05-26T08:20:08.223Z,64.92
2019-05-26T08:21:08.663Z,68.35
2019-05-26T08:22:09.141Z,68.93
2019-05-26T08:23:09.608Z,68.00
2019-05-26T08:24:10.022Z,68.68
2019-05-26T08:25:10.481Z,68.51
2019-05-26T08:26:10.916Z,68.00
2019-05-26T08:27:11.357Z,67.52
2019-05-26T08:28:11.810Z,65.33
2019-05-26T08:29:12.257Z,67.07
2019-05-26T08:30:12.708Z,68.26
2019-05-26T08:31:13.529Z,67.39
2019-05-26T08:32:15.139Z,66.27
2019-05-26T08:33:14.049Z,67.03
2019-05-26T08:34:14.499Z,65.81
2019-05-26T08:35:14.958Z,64.21
2019-05-26T08:36:15.398Z,63.50
2019-05-26T08:37:15.839Z,63.31
2019-05-26T08:38:16.292Z,65.24
2019-05-26T08:39:16.743Z,64.08
2019-05-26T08:40:17.188Z,63.92
2019-05-26T08:41:17.647Z,64.37
2019-05-26T08:42:26.919Z,63.47
2019-05-26T08:43:18.535Z,62.05
2019-05-26T08:44:18.991Z,60.93
2019-05-26T08:45:21.715Z,59.22
2019-05-26T08:46:19.885Z,59.12
2019-05-26T08:47:20.343Z,57.96
2019-05-26T08:48:20.780Z,58.35
2019-05-26T08:49:21.238Z,57.77
2019-05-26T08:50:21.685Z,59.00
2019-05-26T08:51:22.156Z,59.12
2019-05-26T08:52:22.589Z,58.45
2019-05-26T08:53:23.031Z,57.87
2019-05-26T08:54:23.486Z,57.77
2019-05-26T08:55:23.940Z,57.57
2019-05-26T08:56:24.387Z,57.09
2019-05-26T08:57:24.838Z,57.48
2019-05-26T08:58:25.306Z,59.00
2019-05-26T08:59:25.742Z,58.25
2019-05-26T09:00:26.182Z,56.83
2019-05-26T09:01:26.638Z,56.83
2019-05-26T09:02:27.086Z,55.99
2019-05-26T09:03:27.538Z,56.87
2019-05-26T09:04:27.989Z,57.51
2019-05-26T09:05:28.437Z,56.62
2019-05-26T09:06:28.889Z,53.91
2019-05-26T09:07:29.340Z,53.94
2019-05-26T09:08:29.799Z,53.45
2019-05-26T09:09:30.252Z,53.00
2019-05-26T09:10:30.701Z,52.44
2019-05-26T09:11:31.158Z,51.64
2019-05-26T09:12:31.601Z,51.52
2019-05-26T09:13:32.065Z,51.42
2019-05-26T09:14:32.512Z,53.02
2019-05-26T09:15:32.956Z,53.14
2019-05-26T09:16:33.414Z,52.78
2019-05-26T09:17:33.866Z,51.74
2019-05-26T09:18:34.367Z,51.45
2019-05-26T09:19:34.784Z,51.88
2019-05-26T09:20:35.229Z,50.84
2019-05-26T09:21:35.690Z,52.44
2019-05-26T09:22:36.127Z,53.02
2019-05-26T09:23:36.589Z,51.66
2019-05-26T09:24:37.046Z,51.74
2019-05-26T09:25:37.527Z,51.37
2019-05-26T09:26:37.953Z,51.13
2019-05-26T09:27:38.408Z,49.00
2019-05-26T09:28:38.870Z,49.77
2019-05-26T09:29:39.335Z,48.54
2019-05-26T09:30:39.806Z,48.47
2019-05-26T09:31:40.230Z,48.00
2019-05-26T09:32:40.694Z,46.84
2019-05-26T09:33:41.149Z,47.42
2019-05-26T09:34:41.625Z,47.81
2019-05-26T09:35:42.058Z,47.66
2019-05-26T09:36:42.517Z,47.23
2019-05-26T09:37:42.983Z,48.27
2019-05-26T09:38:43.437Z,51.06
2019-05-26T09:39:43.878Z,49.34
2019-05-26T09:40:44.341Z,49.32
2019-05-26T09:41:44.801Z,48.08
2019-05-26T09:42:45.249Z,46.60
2019-05-26T09:43:45.708Z,48.66
2019-05-26T09:44:46.170Z,46.97
2019-05-26T09:45:46.633Z,48.11
2019-05-26T09:46:47.102Z,47.67
2019-05-26T09:47:47.547Z,48.22
2019-05-26T09:48:48.024Z,46.60
2019-05-26T09:49:48.462Z,47.38
2019-05-26T09:50:48.912Z,48.59
2019-05-26T09:51:49.364Z,48.15
2019-05-26T09:52:49.841Z,48.06
2019-05-26T09:54:01.210Z,47.47
2019-05-26T09:54:50.741Z,49.75
2019-05-26T09:55:51.193Z,48.08
2019-05-26T09:56:51.649Z,48.86
2019-05-26T09:57:52.100Z,50.26
2019-05-26T09:58:52.556Z,50.38
2019-05-26T09:59:53.014Z,50.26
2019-05-26T10:00:53.466Z,49.70
2019-05-26T10:01:53.934Z,51.95
2019-05-26T10:02:54.370Z,53.73
2019-05-26T10:03:54.822Z,52.94
2019-05-26T10:04:55.312Z,52.36
2019-05-26T10:05:55.719Z,52.95
2019-05-26T10:06:56.177Z,52.84
2019-05-26T10:07:56.635Z,50.45
2019-05-26T10:08:57.079Z,49.70
2019-05-26T10:09:57.578Z,50.79
2019-05-26T10:10:57.985Z,51.23
2019-05-26T10:11:58.442Z,51.95
2019-05-26T10:12:58.902Z,50.31
2019-05-26T10:13:59.343Z,49.07
2019-05-26T10:14:59.800Z,47.94
2019-05-26T10:16:00.261Z,47.64
2019-05-26T10:17:00.709Z,48.01
2019-05-26T10:18:01.164Z,49.34
2019-05-26T10:19:01.625Z,49.70
2019-05-26T10:20:02.074Z,50.48
2019-05-26T10:21:02.522Z,50.50
2019-05-26T10:22:03.019Z,51.75
2019-05-26T10:23:03.429Z,52.26
2019-05-26T10:24:03.879Z,51.83
2019-05-26T10:25:04.330Z,50.60
2019-05-26T10:26:04.790Z,49.12
2019-05-26T10:27:05.227Z,49.05
2019-05-26T10:28:05.675Z,48.66
2019-05-26T10:29:06.129Z,48.39
2019-05-26T10:30:06.590Z,48.71
2019-05-26T10:31:07.032Z,48.18
2019-05-26T10:32:07.488Z,50.55
2019-05-26T10:33:07.939Z,52.02
2019-05-26T10:34:08.393Z,50.38
2019-05-26T10:35:08.843Z,50.74
2019-05-26T10:36:09.295Z,51.82
2019-05-26T10:37:09.750Z,53.85
2019-05-26T10:38:10.188Z,52.81
2019-05-26T10:39:10.646Z,51.85
2019-05-26T10:40:11.107Z,52.72
2019-05-26T10:41:11.554Z,52.62
2019-05-26T10:42:11.998Z,52.09
2019-05-26T10:43:12.453Z,50.35
2019-05-26T10:44:12.896Z,50.38
2019-05-26T10:45:13.345Z,50.33
2019-05-26T10:46:13.798Z,50.71
2019-05-26T10:47:14.247Z,51.95
2019-05-26T10:48:14.718Z,52.72
2019-05-26T10:49:15.150Z,52.14
2019-05-26T10:50:15.583Z,52.43
2019-05-26T10:51:16.095Z,52.89
2019-05-26T10:52:16.486Z,53.69
2019-05-26T10:53:16.944Z,52.19
2019-05-26T10:54:17.382Z,52.79
2019-05-26T10:55:17.829Z,54.62
2019-05-26T10:56:18.290Z,51.97
2019-05-26T10:57:18.727Z,50.74
2019-05-26T10:58:19.191Z,50.57
2019-05-26T10:59:19.635Z,50.09
2019-05-26T11:00:20.070Z,49.34
2019-05-26T11:01:20.540Z,49.80
2019-05-26T11:02:20.975Z,50.28
2019-05-26T11:03:21.423Z,50.76
2019-05-26T11:04:21.875Z,50.86
2019-05-26T11:05:22.347Z,52.61
2019-05-26T11:06:22.767Z,50.24
2019-05-26T11:07:26.658Z,50.31
2019-05-26T11:08:23.688Z,49.07
2019-05-26T11:09:24.112Z,50.93
2019-05-26T11:10:24.578Z,51.15
2019-05-26T11:11:25.016Z,49.82
2019-05-26T11:12:25.527Z,49.54
2019-05-26T11:13:25.921Z,49.51
2019-05-26T11:14:26.374Z,49.32
2019-05-26T11:15:26.827Z,50.09
2019-05-26T11:16:27.269Z,49.49
2019-05-26T11:17:27.736Z,49.97
2019-05-26T11:18:28.160Z,50.09
2019-05-26T11:19:28.622Z,49.32
2019-05-26T11:20:29.090Z,48.93
2019-05-26T11:21:29.513Z,49.02
2019-05-26T11:22:29.962Z,49.58
2019-05-26T11:23:30.413Z,50.13
2019-05-26T11:24:30.865Z,51.37
2019-05-26T11:25:31.315Z,52.11
2019-05-26T11:26:31.770Z,51.68
2019-05-26T11:27:32.205Z,50.33
2019-05-26T11:28:32.668Z,51.13
2019-05-26T11:29:33.119Z,50.84
2019-05-26T11:30:33.553Z,50.74
2019-05-26T11:31:33.999Z,51.95
2019-05-26T11:32:34.462Z,52.26
2019-05-26T11:33:34.900Z,50.74
2019-05-26T11:34:35.354Z,50.65
2019-05-26T11:35:35.789Z,50.84
2019-05-26T11:36:36.245Z,50.38
2019-05-26T11:37:36.702Z,49.44
2019-05-26T11:38:37.169Z,48.86
2019-05-26T11:39:37.603Z,49.39
2019-05-26T11:40:38.040Z,51.95
2019-05-26T11:41:38.513Z,51.32
2019-05-26T11:42:38.943Z,51.61
2019-05-26T11:43:39.394Z,52.00
2019-05-26T11:44:39.828Z,50.76
2019-05-26T11:45:40.295Z,49.60
2019-05-26T11:46:40.724Z,49.39
2019-05-26T11:47:41.180Z,49.60
2019-05-26T11:48:41.659Z,50.98
2019-05-26T11:49:42.084Z,52.45
2019-05-26T11:50:42.534Z,51.01
2019-05-26T11:51:42.981Z,51.85
2019-05-26T11:52:43.434Z,52.17
2019-05-26T11:53:43.882Z,51.13
2019-05-26T11:54:44.321Z,50.89
2019-05-26T11:55:44.766Z,51.90
2019-05-26T11:56:45.210Z,50.01
2019-05-26T11:57:45.708Z,51.01
2019-05-26T11:58:46.114Z,50.45
2019-05-26T11:59:47.428Z,49.51
2019-05-26T12:00:47.000Z,49.37
2019-05-26T12:01:47.448Z,50.35
2019-05-26T12:02:47.908Z,50.65
2019-05-26T12:03:48.349Z,50.38
2019-05-26T12:04:48.793Z,50.18
2019-05-26T12:05:49.250Z,50.18
2019-05-26T12:06:49.682Z,50.26
2019-05-26T12:07:50.135Z,51.03
2019-05-26T12:08:50.581Z,50.38
2019-05-26T12:09:51.023Z,51.15
2019-05-26T12:10:51.479Z,50.28
2019-05-26T12:11:51.924Z,49.99
2019-05-26T12:12:52.366Z,49.51
2019-05-26T12:13:52.823Z,49.44
2019-05-26T12:14:53.260Z,50.07
2019-05-26T12:15:53.718Z,51.56
2019-05-26T12:16:54.156Z,52.14
2019-05-26T12:17:54.621Z,50.93
2019-05-26T12:18:55.055Z,50.93
2019-05-26T12:19:55.501Z,50.26
2019-05-26T12:20:55.948Z,51.65
2019-05-26T12:21:56.410Z,51.97
2019-05-26T12:22:56.840Z,51.81
2019-05-26T12:23:57.290Z,50.35
2019-05-26T12:24:57.746Z,49.58
2019-05-26T12:25:58.182Z,49.39
2019-05-26T12:26:58.628Z,49.77
2019-05-26T12:27:59.074Z,49.39
2019-05-26T12:28:59.523Z,50.07
2019-05-26T12:29:59.979Z,49.77
2019-05-26T12:31:00.410Z,50.91
2019-05-26T12:32:00.881Z,50.04
2019-05-26T12:33:01.310Z,51.01
2019-05-26T12:34:01.757Z,50.33
2019-05-26T12:35:02.215Z,50.81
2019-05-26T12:36:02.649Z,51.29
2019-05-26T12:37:03.106Z,50.43
2019-05-26T12:38:03.537Z,50.81
2019-05-26T12:39:03.990Z,50.26
2019-05-26T12:40:04.438Z,50.07
2019-05-26T12:41:04.871Z,50.57
2019-05-26T12:42:05.328Z,48.95
2019-05-26T12:43:05.767Z,48.44
2019-05-26T12:44:06.218Z,48.86
2019-05-26T12:45:06.665Z,49.22
2019-05-26T12:46:07.118Z,49.00
2019-05-26T12:47:07.558Z,49.39
2019-05-26T12:48:08.016Z,49.60
2019-05-26T12:49:08.454Z,49.87
2019-05-26T12:50:08.898Z,50.16
2019-05-26T12:51:09.337Z,50.26
2019-05-26T12:52:09.780Z,50.45
2019-05-26T12:53:10.236Z,50.35
2019-05-26T12:54:10.679Z,50.48
2019-05-26T12:55:11.126Z,50.28
2019-05-26T12:56:11.587Z,50.84
2019-05-26T12:57:12.028Z,50.28
2019-05-26T12:58:12.506Z,49.41
2019-05-26T12:59:12.914Z,49.80
2019-05-26T13:00:13.378Z,49.02
2019-05-26T13:01:13.814Z,49.02
2019-05-26T13:02:14.257Z,48.76
2019-05-26T13:03:14.704Z,48.54
2019-05-26T13:04:15.146Z,49.15
2019-05-26T13:05:15.592Z,50.07
2019-05-26T13:06:17.715Z,50.57